sensor_id;sensor_type;location;lat;lon;timestamp;pressure;altitude;pressure_sealevel;temperature;humidity
79242;BME280;68670;48.720;9.118;2023-06-19T00:01:00;96420.28;;;23.00;42.81
79242;BME280;68670;48.720;9.118;2023-06-19T00:03:28;96418.50;;;22.87;43.19
79242;BME280;68670;48.720;9.118;2023-06-19T00:05:53;96423.91;;;22.92;42.90
79242;BME280;68670;48.720;9.118;2023-06-19T00:08:19;96421.78;;;22.89;42.89
79242;BME280;68670;48.720;9.118;2023-06-19T00:10:44;96424.91;;;22.87;43.18
79242;BME280;68670;48.720;9.118;2023-06-19T00:13:10;96433.94;;;22.75;43.35
79242;BME280;68670;48.720;9.118;2023-06-19T00:15:35;96421.13;;;22.74;43.33
79242;BME280;68670;48.720;9.118;2023-06-19T00:18:05;96424.13;;;22.69;43.60
79242;BME280;68670;48.720;9.118;2023-06-19T00:20:32;96433.31;;;22.70;43.57
79242;BME280;68670;48.720;9.118;2023-06-19T00:23:00;96427.59;;;22.66;43.57
79242;BME280;68670;48.720;9.118;2023-06-19T00:25:28;96436.63;;;22.63;43.90
79242;BME280;68670;48.720;9.118;2023-06-19T00:27:54;96433.34;;;22.61;44.41
79242;BME280;68670;48.720;9.118;2023-06-19T00:30:19;96434.50;;;22.60;44.03
79242;BME280;68670;48.720;9.118;2023-06-19T00:32:46;96434.00;;;22.58;43.94
79242;BME280;68670;48.720;9.118;2023-06-19T00:35:16;96430.56;;;22.53;44.17
79242;BME280;68670;48.720;9.118;2023-06-19T00:37:43;96431.22;;;22.50;44.21
79242;BME280;68670;48.720;9.118;2023-06-19T00:40:32;96432.69;;;22.47;44.54
79242;BME280;68670;48.720;9.118;2023-06-19T00:42:58;96429.09;;;22.46;44.30
79242;BME280;68670;48.720;9.118;2023-06-19T00:45:24;96432.53;;;22.43;44.45
79242;BME280;68670;48.720;9.118;2023-06-19T00:47:50;96433.06;;;22.37;44.81
79242;BME280;68670;48.720;9.118;2023-06-19T00:50:16;96448.00;;;22.32;46.30
79242;BME280;68670;48.720;9.118;2023-06-19T00:52:44;96452.59;;;22.20;47.42
79242;BME280;68670;48.720;9.118;2023-06-19T00:55:10;96452.44;;;22.07;46.47
79242;BME280;68670;48.720;9.118;2023-06-19T00:57:38;96450.81;;;22.06;46.63
79242;BME280;68670;48.720;9.118;2023-06-19T01:00:05;96450.97;;;22.01;46.67
79242;BME280;68670;48.720;9.118;2023-06-19T01:02:32;96452.25;;;22.12;46.19
79242;BME280;68670;48.720;9.118;2023-06-19T01:04:57;96453.56;;;22.15;46.05
79242;BME280;68670;48.720;9.118;2023-06-19T01:07:30;96460.13;;;22.10;46.23
79242;BME280;68670;48.720;9.118;2023-06-19T01:10:01;96458.03;;;22.07;46.40
79242;BME280;68670;48.720;9.118;2023-06-19T01:12:49;96483.28;;;22.20;46.56
79242;BME280;68670;48.720;9.118;2023-06-19T01:15:18;96500.53;;;22.30;45.87
79242;BME280;68670;48.720;9.118;2023-06-19T01:17:45;96495.09;;;22.34;44.29
79242;BME280;68670;48.720;9.118;2023-06-19T01:20:13;96508.06;;;22.47;43.39
79242;BME280;68670;48.720;9.118;2023-06-19T01:22:38;96504.28;;;22.60;43.01
79242;BME280;68670;48.720;9.118;2023-06-19T01:25:04;96514.47;;;22.56;43.43
79242;BME280;68670;48.720;9.118;2023-06-19T01:27:31;96512.31;;;22.62;43.52
79242;BME280;68670;48.720;9.118;2023-06-19T01:29:58;96516.91;;;22.58;43.99
79242;BME280;68670;48.720;9.118;2023-06-19T01:32:51;96518.41;;;22.55;44.35
79242;BME280;68670;48.720;9.118;2023-06-19T01:35:23;96521.34;;;22.50;44.56
79242;BME280;68670;48.720;9.118;2023-06-19T01:37:52;96525.66;;;22.39;44.90
79242;BME280;68670;48.720;9.118;2023-06-19T01:40:18;96524.16;;;22.41;45.07
79242;BME280;68670;48.720;9.118;2023-06-19T01:42:47;96523.00;;;22.34;44.90
79242;BME280;68670;48.720;9.118;2023-06-19T01:45:15;96522.19;;;22.25;45.30
79242;BME280;68670;48.720;9.118;2023-06-19T01:47:40;96521.03;;;22.26;45.33
79242;BME280;68670;48.720;9.118;2023-06-19T01:50:06;96527.41;;;22.18;46.07
79242;BME280;68670;48.720;9.118;2023-06-19T01:52:32;96524.28;;;22.10;46.27
79242;BME280;68670;48.720;9.118;2023-06-19T01:54:58;96521.03;;;22.08;46.79
79242;BME280;68670;48.720;9.118;2023-06-19T01:57:25;96506.41;;;22.03;47.22
79242;BME280;68670;48.720;9.118;2023-06-19T01:59:51;96509.88;;;22.08;47.23
79242;BME280;68670;48.720;9.118;2023-06-19T02:02:21;96496.34;;;21.93;48.05
79242;BME280;68670;48.720;9.118;2023-06-19T02:04:48;96512.09;;;21.89;48.38
79242;BME280;68670;48.720;9.118;2023-06-19T02:07:13;96514.72;;;21.94;48.68
79242;BME280;68670;48.720;9.118;2023-06-19T02:09:41;96510.94;;;21.90;48.88
79242;BME280;68670;48.720;9.118;2023-06-19T02:12:07;96511.09;;;21.85;49.28
79242;BME280;68670;48.720;9.118;2023-06-19T02:14:33;96503.72;;;21.89;49.45
79242;BME280;68670;48.720;9.118;2023-06-19T02:16:58;96503.88;;;21.84;49.60
79242;BME280;68670;48.720;9.118;2023-06-19T02:19:26;96508.78;;;21.78;49.67
79242;BME280;68670;48.720;9.118;2023-06-19T02:21:54;96507.63;;;21.79;50.02
79242;BME280;68670;48.720;9.118;2023-06-19T02:24:19;96517.31;;;21.82;49.70
79242;BME280;68670;48.720;9.118;2023-06-19T02:26:44;96508.94;;;21.73;50.06
79242;BME280;68670;48.720;9.118;2023-06-19T02:29:12;96508.94;;;21.73;49.72
79242;BME280;68670;48.720;9.118;2023-06-19T02:31:39;96502.69;;;21.68;50.42
79242;BME280;68670;48.720;9.118;2023-06-19T02:34:05;96500.25;;;21.75;49.98
79242;BME280;68670;48.720;9.118;2023-06-19T02:36:30;96500.38;;;21.61;50.69
79242;BME280;68670;48.720;9.118;2023-06-19T02:38:58;96513.19;;;21.62;50.60
79242;BME280;68670;48.720;9.118;2023-06-19T02:41:23;96514.47;;;21.56;51.02
79242;BME280;68670;48.720;9.118;2023-06-19T02:43:48;96517.75;;;21.58;50.97
79242;BME280;68670;48.720;9.118;2023-06-19T02:46:14;96513.78;;;21.51;51.32
79242;BME280;68670;48.720;9.118;2023-06-19T02:48:40;96518.72;;;21.54;51.16
79242;BME280;68670;48.720;9.118;2023-06-19T02:51:05;96524.16;;;21.59;51.03
79242;BME280;68670;48.720;9.118;2023-06-19T02:53:33;96530.63;;;21.45;51.29
79242;BME280;68670;48.720;9.118;2023-06-19T02:56:01;96521.63;;;21.49;51.44
79242;BME280;68670;48.720;9.118;2023-06-19T02:58:28;96528.03;;;21.40;51.33
79242;BME280;68670;48.720;9.118;2023-06-19T03:00:56;96539.81;;;21.37;51.77
79242;BME280;68670;48.720;9.118;2023-06-19T03:03:23;96542.28;;;21.39;51.58
79242;BME280;68670;48.720;9.118;2023-06-19T03:05:51;96548.66;;;21.39;51.68
79242;BME280;68670;48.720;9.118;2023-06-19T03:08:17;96550.78;;;21.34;51.93
79242;BME280;68670;48.720;9.118;2023-06-19T03:10:42;96546.34;;;21.33;52.06
79242;BME280;68670;48.720;9.118;2023-06-19T03:13:07;96557.44;;;21.24;52.36
79242;BME280;68670;48.720;9.118;2023-06-19T03:15:32;96551.03;;;21.24;52.53
79242;BME280;68670;48.720;9.118;2023-06-19T03:18:00;96555.16;;;21.26;52.22
79242;BME280;68670;48.720;9.118;2023-06-19T03:20:28;96554.66;;;21.24;52.36
79242;BME280;68670;48.720;9.118;2023-06-19T03:22:53;96553.31;;;21.22;52.37
79242;BME280;68670;48.720;9.118;2023-06-19T03:25:19;96560.94;;;21.16;52.41
79242;BME280;68670;48.720;9.118;2023-06-19T03:27:49;96557.84;;;21.18;52.11
79242;BME280;68670;48.720;9.118;2023-06-19T03:30:14;96559.19;;;21.20;52.50
79242;BME280;68670;48.720;9.118;2023-06-19T03:32:45;96555.69;;;21.14;52.71
79242;BME280;68670;48.720;9.118;2023-06-19T03:35:11;96562.41;;;21.13;52.77
79242;BME280;68670;48.720;9.118;2023-06-19T03:37:36;96563.53;;;21.04;52.69
79242;BME280;68670;48.720;9.118;2023-06-19T03:40:02;96565.28;;;21.00;53.25
79242;BME280;68670;48.720;9.118;2023-06-19T03:42:28;96570.59;;;20.88;53.63
79242;BME280;68670;48.720;9.118;2023-06-19T03:44:53;96567.69;;;20.93;53.50
79242;BME280;68670;48.720;9.118;2023-06-19T03:47:19;96564.66;;;20.80;54.36
79242;BME280;68670;48.720;9.118;2023-06-19T03:49:44;96564.94;;;20.70;54.88
79242;BME280;68670;48.720;9.118;2023-06-19T03:52:09;96561.25;;;20.61;55.22
79242;BME280;68670;48.720;9.118;2023-06-19T03:54:35;96563.53;;;20.59;55.28
79242;BME280;68670;48.720;9.118;2023-06-19T03:57:00;96564.41;;;20.46;56.03
79242;BME280;68670;48.720;9.118;2023-06-19T03:59:25;96567.50;;;20.31;56.99
79242;BME280;68670;48.720;9.118;2023-06-19T04:01:51;96575.97;;;20.26;57.79
79242;BME280;68670;48.720;9.118;2023-06-19T04:04:16;96585.66;;;20.14;59.10
79242;BME280;68670;48.720;9.118;2023-06-19T04:06:41;96585.91;;;20.04;59.01
79242;BME280;68670;48.720;9.118;2023-06-19T04:09:07;96584.69;;;19.97;59.14
79242;BME280;68670;48.720;9.118;2023-06-19T04:11:34;96583.22;;;19.99;58.79
79242;BME280;68670;48.720;9.118;2023-06-19T04:14:03;96584.56;;;19.88;59.47
79242;BME280;68670;48.720;9.118;2023-06-19T04:16:28;96581.41;;;19.67;60.91
79242;BME280;68670;48.720;9.118;2023-06-19T04:18:56;96581.81;;;19.61;61.38
79242;BME280;68670;48.720;9.118;2023-06-19T04:21:21;96570.03;;;19.50;61.74
79242;BME280;68670;48.720;9.118;2023-06-19T04:23:46;96584.66;;;19.42;62.62
79242;BME280;68670;48.720;9.118;2023-06-19T04:26:11;96583.22;;;19.44;62.11
79242;BME280;68670;48.720;9.118;2023-06-19T04:28:37;96583.75;;;19.46;62.59
79242;BME280;68670;48.720;9.118;2023-06-19T04:31:07;96577.06;;;19.48;63.13
79242;BME280;68670;48.720;9.118;2023-06-19T04:33:32;96578.28;;;19.41;63.82
79242;BME280;68670;48.720;9.118;2023-06-19T04:35:58;96577.25;;;19.37;64.15
79242;BME280;68670;48.720;9.118;2023-06-19T04:38:25;96575.59;;;19.36;64.60
79242;BME280;68670;48.720;9.118;2023-06-19T04:40:51;96575.00;;;19.39;64.13
79242;BME280;68670;48.720;9.118;2023-06-19T04:43:17;96578.38;;;19.36;63.91
79242;BME280;68670;48.720;9.118;2023-06-19T04:45:47;96577.06;;;19.48;63.55
79242;BME280;68670;48.720;9.118;2023-06-19T04:48:13;96579.84;;;19.48;63.75
79242;BME280;68670;48.720;9.118;2023-06-19T04:50:38;96575.41;;;19.46;63.83
79242;BME280;68670;48.720;9.118;2023-06-19T04:53:06;96595.41;;;19.62;63.51
79242;BME280;68670;48.720;9.118;2023-06-19T04:55:31;96592.31;;;19.64;63.34
79242;BME280;68670;48.720;9.118;2023-06-19T04:57:57;96596.53;;;19.75;62.95
79242;BME280;68670;48.720;9.118;2023-06-19T05:00:22;96599.31;;;19.75;63.21
79242;BME280;68670;48.720;9.118;2023-06-19T05:02:49;96602.72;;;19.72;63.83
79242;BME280;68670;48.720;9.118;2023-06-19T05:05:15;96605.50;;;19.72;64.28
79242;BME280;68670;48.720;9.118;2023-06-19T05:07:41;96602.81;;;19.67;64.53
79242;BME280;68670;48.720;9.118;2023-06-19T05:10:07;96605.69;;;19.75;64.30
79242;BME280;68670;48.720;9.118;2023-06-19T05:12:34;96606.53;;;19.76;64.03
79242;BME280;68670;48.720;9.118;2023-06-19T05:15:00;96605.50;;;19.72;64.14
79242;BME280;68670;48.720;9.118;2023-06-19T05:17:25;96610.66;;;19.78;63.56
79242;BME280;68670;48.720;9.118;2023-06-19T05:19:53;96615.38;;;19.78;63.41
79242;BME280;68670;48.720;9.118;2023-06-19T05:22:18;96611.84;;;19.86;63.28
79242;BME280;68670;48.720;9.118;2023-06-19T05:24:44;96619.06;;;19.87;63.69
79242;BME280;68670;48.720;9.118;2023-06-19T05:27:10;96611.25;;;19.89;63.59
79242;BME280;68670;48.720;9.118;2023-06-19T05:29:38;96609.06;;;19.86;63.64
79242;BME280;68670;48.720;9.118;2023-06-19T05:32:05;96614.13;;;19.98;63.57
79242;BME280;68670;48.720;9.118;2023-06-19T05:34:31;96604.97;;;19.97;63.63
79242;BME280;68670;48.720;9.118;2023-06-19T05:36:57;96607.91;;;20.14;62.69
79242;BME280;68670;48.720;9.118;2023-06-19T05:39:22;96614.91;;;20.26;62.23
79242;BME280;68670;48.720;9.118;2023-06-19T05:41:48;96605.81;;;20.34;61.82
79242;BME280;68670;48.720;9.118;2023-06-19T05:44:13;96617.75;;;20.48;61.37
79242;BME280;68670;48.720;9.118;2023-06-19T05:46:44;96621.75;;;20.56;61.37
79242;BME280;68670;48.720;9.118;2023-06-19T05:49:09;96627.91;;;20.66;61.07
79242;BME280;68670;48.720;9.118;2023-06-19T05:51:35;96622.25;;;20.71;60.39
79242;BME280;68670;48.720;9.118;2023-06-19T05:54:03;96632.47;;;20.85;61.41
79242;BME280;68670;48.720;9.118;2023-06-19T05:56:38;96632.88;;;20.92;60.50
79242;BME280;68670;48.720;9.118;2023-06-19T05:59:03;96634.41;;;20.98;60.47
79242;BME280;68670;48.720;9.118;2023-06-19T06:01:30;96644.41;;;20.99;60.15
79242;BME280;68670;48.720;9.118;2023-06-19T06:03:56;96639.97;;;20.98;60.38
79242;BME280;68670;48.720;9.118;2023-06-19T06:06:28;96651.50;;;21.05;59.97
79242;BME280;68670;48.720;9.118;2023-06-19T06:08:54;96649.84;;;21.04;60.27
79242;BME280;68670;48.720;9.118;2023-06-19T06:11:22;96645.59;;;21.06;60.13
79242;BME280;68670;48.720;9.118;2023-06-19T06:13:47;96647.75;;;21.09;59.84
79242;BME280;68670;48.720;9.118;2023-06-19T06:16:13;96638.53;;;21.23;59.40
79242;BME280;68670;48.720;9.118;2023-06-19T06:18:39;96640.38;;;21.27;59.00
79242;BME280;68670;48.720;9.118;2023-06-19T06:21:07;96646.94;;;21.31;58.66
79242;BME280;68670;48.720;9.118;2023-06-19T06:23:33;96647.84;;;21.40;58.32
79242;BME280;68670;48.720;9.118;2023-06-19T06:26:00;96646.41;;;21.52;57.63
79242;BME280;68670;48.720;9.118;2023-06-19T06:28:31;96659.19;;;21.53;57.89
79242;BME280;68670;48.720;9.118;2023-06-19T06:30:56;96659.00;;;21.80;56.89
79242;BME280;68670;48.720;9.118;2023-06-19T06:33:22;96666.41;;;21.85;56.93
79242;BME280;68670;48.720;9.118;2023-06-19T06:35:50;96672.81;;;21.85;57.05
79242;BME280;68670;48.720;9.118;2023-06-19T06:38:18;96669.94;;;21.99;56.46
79242;BME280;68670;48.720;9.118;2023-06-19T06:40:47;96681.31;;;22.11;54.99
79242;BME280;68670;48.720;9.118;2023-06-19T06:43:16;96676.91;;;22.19;55.44
79242;BME280;68670;48.720;9.118;2023-06-19T06:45:41;96676.31;;;22.30;54.84
79242;BME280;68670;48.720;9.118;2023-06-19T06:48:07;96685.31;;;22.27;55.65
79242;BME280;68670;48.720;9.118;2023-06-19T06:50:33;96670.22;;;22.28;54.88
79242;BME280;68670;48.720;9.118;2023-06-19T06:53:01;96680.72;;;22.23;54.66
79242;BME280;68670;48.720;9.118;2023-06-19T06:55:26;96682.63;;;22.13;54.37
79242;BME280;68670;48.720;9.118;2023-06-19T06:57:54;96686.25;;;22.14;55.32
79242;BME280;68670;48.720;9.118;2023-06-19T07:00:19;96692.84;;;22.18;54.74
79242;BME280;68670;48.720;9.118;2023-06-19T07:02:45;96702.16;;;22.13;54.80
79242;BME280;68670;48.720;9.118;2023-06-19T07:05:13;96707.75;;;22.13;55.41
79242;BME280;68670;48.720;9.118;2023-06-19T07:07:40;96702.03;;;22.19;54.22
79242;BME280;68670;48.720;9.118;2023-06-19T07:10:06;96696.31;;;22.24;54.52
79242;BME280;68670;48.720;9.118;2023-06-19T07:12:32;96694.13;;;22.12;54.72
79242;BME280;68670;48.720;9.118;2023-06-19T07:14:57;96693.59;;;22.01;54.97
79242;BME280;68670;48.720;9.118;2023-06-19T07:17:22;96699.19;;;22.01;54.98
79242;BME280;68670;48.720;9.118;2023-06-19T07:19:47;96700.19;;;22.05;55.22
79242;BME280;68670;48.720;9.118;2023-06-19T07:22:13;96697.31;;;22.28;54.15
79242;BME280;68670;48.720;9.118;2023-06-19T07:24:40;96692.72;;;22.32;53.35
79242;BME280;68670;48.720;9.118;2023-06-19T07:27:06;96691.63;;;22.41;54.00
79242;BME280;68670;48.720;9.118;2023-06-19T07:29:32;96699.63;;;22.43;53.22
79242;BME280;68670;48.720;9.118;2023-06-19T07:31:58;96700.34;;;22.57;54.19
79242;BME280;68670;48.720;9.118;2023-06-19T07:34:23;96703.66;;;22.76;52.28
79242;BME280;68670;48.720;9.118;2023-06-19T07:36:48;96707.66;;;22.93;51.58
79242;BME280;68670;48.720;9.118;2023-06-19T07:39:14;96705.53;;;22.98;52.43
79242;BME280;68670;48.720;9.118;2023-06-19T07:41:42;96715.06;;;23.15;52.60
79242;BME280;68670;48.720;9.118;2023-06-19T07:44:07;96720.50;;;23.28;49.54
79242;BME280;68670;48.720;9.118;2023-06-19T07:46:32;96711.94;;;23.33;50.81
79242;BME280;68670;48.720;9.118;2023-06-19T07:48:58;96712.94;;;23.55;50.29
79242;BME280;68670;48.720;9.118;2023-06-19T07:51:23;96723.94;;;23.68;49.82
79242;BME280;68670;48.720;9.118;2023-06-19T07:53:50;96718.69;;;23.58;50.23
79242;BME280;68670;48.720;9.118;2023-06-19T07:56:16;96729.06;;;23.58;49.51
79242;BME280;68670;48.720;9.118;2023-06-19T07:58:41;96720.34;;;23.59;49.64
79242;BME280;68670;48.720;9.118;2023-06-19T08:01:06;96724.63;;;23.57;50.02
79242;BME280;68670;48.720;9.118;2023-06-19T08:03:32;96721.13;;;23.42;50.29
79242;BME280;68670;48.720;9.118;2023-06-19T08:05:57;96730.00;;;23.44;50.10
79242;BME280;68670;48.720;9.118;2023-06-19T08:08:25;96718.34;;;23.25;50.16
79242;BME280;68670;48.720;9.118;2023-06-19T08:10:52;96733.97;;;23.26;50.36
79242;BME280;68670;48.720;9.118;2023-06-19T08:13:18;96725.59;;;23.26;50.86
79242;BME280;68670;48.720;9.118;2023-06-19T08:15:43;96723.44;;;23.23;50.89
79242;BME280;68670;48.720;9.118;2023-06-19T08:18:11;96727.06;;;23.15;50.95
79242;BME280;68670;48.720;9.118;2023-06-19T08:20:36;96720.31;;;23.16;51.53
79242;BME280;68670;48.720;9.118;2023-06-19T08:23:01;96718.53;;;23.20;51.77
79242;BME280;68670;48.720;9.118;2023-06-19T08:25:31;96719.69;;;23.28;51.29
79242;BME280;68670;48.720;9.118;2023-06-19T08:27:59;96708.16;;;23.38;50.98
79242;BME280;68670;48.720;9.118;2023-06-19T08:30:24;96711.47;;;23.57;51.29
79242;BME280;68670;48.720;9.118;2023-06-19T08:32:52;96708.94;;;23.73;51.52
79242;BME280;68670;48.720;9.118;2023-06-19T08:35:17;96710.59;;;23.74;49.76
79242;BME280;68670;48.720;9.118;2023-06-19T08:37:43;96701.19;;;23.87;50.72
79242;BME280;68670;48.720;9.118;2023-06-19T08:40:11;96705.56;;;24.05;49.88
79242;BME280;68670;48.720;9.118;2023-06-19T08:42:37;96703.22;;;24.25;48.89
79242;BME280;68670;48.720;9.118;2023-06-19T08:45:06;96703.88;;;24.22;48.91
79242;BME280;68670;48.720;9.118;2023-06-19T08:47:32;96687.06;;;24.60;48.94
79242;BME280;68670;48.720;9.118;2023-06-19T08:49:59;96689.50;;;24.91;47.07
79242;BME280;68670;48.720;9.118;2023-06-19T08:52:24;96687.66;;;25.36;48.01
79242;BME280;68670;48.720;9.118;2023-06-19T08:54:50;96685.97;;;25.65;44.93
79242;BME280;68670;48.720;9.118;2023-06-19T08:57:17;96686.03;;;26.01;43.35
79242;BME280;68670;48.720;9.118;2023-06-19T08:59:50;96687.09;;;26.09;42.68
79242;BME280;68670;48.720;9.118;2023-06-19T09:02:20;96696.22;;;25.94;42.85
79242;BME280;68670;48.720;9.118;2023-06-19T09:04:47;96693.06;;;26.07;41.86
79242;BME280;68670;48.720;9.118;2023-06-19T09:07:12;96674.81;;;26.14;41.43
79242;BME280;68670;48.720;9.118;2023-06-19T09:09:44;96672.06;;;26.62;41.93
79242;BME280;68670;48.720;9.118;2023-06-19T09:12:14;96675.22;;;26.61;40.10
79242;BME280;68670;48.720;9.118;2023-06-19T09:14:44;96680.47;;;26.74;40.19
79242;BME280;68670;48.720;9.118;2023-06-19T09:17:13;96678.84;;;26.49;40.49
79242;BME280;68670;48.720;9.118;2023-06-19T09:19:47;96685.09;;;26.09;41.24
79242;BME280;68670;48.720;9.118;2023-06-19T09:22:17;96677.22;;;25.78;41.31
79242;BME280;68670;48.720;9.118;2023-06-19T09:24:47;96678.88;;;25.59;42.10
79242;BME280;68670;48.720;9.118;2023-06-19T09:27:14;96683.28;;;25.48;43.01
79242;BME280;68670;48.720;9.118;2023-06-19T09:29:45;96681.38;;;25.39;43.87
79242;BME280;68670;48.720;9.118;2023-06-19T09:32:21;96676.44;;;25.36;43.12
79242;BME280;68670;48.720;9.118;2023-06-19T09:34:48;96680.84;;;25.25;43.87
79242;BME280;68670;48.720;9.118;2023-06-19T09:37:21;96675.50;;;25.11;44.26
79242;BME280;68670;48.720;9.118;2023-06-19T09:40:07;96674.84;;;25.15;44.10
79242;BME280;68670;48.720;9.118;2023-06-19T09:42:43;96674.69;;;25.11;44.19
79242;BME280;68670;48.720;9.118;2023-06-19T09:45:12;96682.22;;;24.98;44.99
79242;BME280;68670;48.720;9.118;2023-06-19T09:47:45;96682.44;;;25.68;44.86
79242;BME280;68670;48.720;9.118;2023-06-19T09:50:14;96680.91;;;26.16;44.88
79242;BME280;68670;48.720;9.118;2023-06-19T09:52:41;96672.75;;;26.35;43.29
79242;BME280;68670;48.720;9.118;2023-06-19T09:55:11;96667.22;;;26.87;44.19
79242;BME280;68670;48.720;9.118;2023-06-19T09:57:41;96662.16;;;27.05;42.67
79242;BME280;68670;48.720;9.118;2023-06-19T10:00:08;96664.53;;;27.31;44.36
79242;BME280;68670;48.720;9.118;2023-06-19T10:02:50;96663.25;;;27.68;42.54
79242;BME280;68670;48.720;9.118;2023-06-19T10:05:15;96649.06;;;28.40;40.04
79242;BME280;68670;48.720;9.118;2023-06-19T10:07:46;96642.66;;;28.74;38.23
79242;BME280;68670;48.720;9.118;2023-06-19T10:12:48;96649.13;;;29.10;36.56
79242;BME280;68670;48.720;9.118;2023-06-19T10:17:46;96653.22;;;29.32;37.72
79242;BME280;68670;48.720;9.118;2023-06-19T10:20:34;96654.03;;;29.13;37.08
79242;BME280;68670;48.720;9.118;2023-06-19T10:25:39;96652.47;;;28.81;38.13
79242;BME280;68670;48.720;9.118;2023-06-19T10:28:29;96665.69;;;28.29;38.35
79242;BME280;68670;48.720;9.118;2023-06-19T10:31:06;96673.75;;;27.99;39.30
79242;BME280;68670;48.720;9.118;2023-06-19T10:33:33;96657.81;;;27.60;39.32
79242;BME280;68670;48.720;9.118;2023-06-19T10:35:59;96662.00;;;27.82;39.03
79242;BME280;68670;48.720;9.118;2023-06-19T10:38:28;96651.00;;;27.61;39.43
79242;BME280;68670;48.720;9.118;2023-06-19T10:40:53;96644.41;;;27.57;40.18
79242;BME280;68670;48.720;9.118;2023-06-19T10:43:24;96641.47;;;28.25;39.73
79242;BME280;68670;48.720;9.118;2023-06-19T10:45:53;96644.94;;;28.85;39.41
79242;BME280;68670;48.720;9.118;2023-06-19T10:48:24;96639.78;;;29.25;36.93
79242;BME280;68670;48.720;9.118;2023-06-19T10:50:50;96639.13;;;29.32;37.67
79242;BME280;68670;48.720;9.118;2023-06-19T10:53:32;96646.47;;;29.36;36.50
79242;BME280;68670;48.720;9.118;2023-06-19T10:56:03;96635.97;;;28.98;37.24
79242;BME280;68670;48.720;9.118;2023-06-19T10:58:29;96640.28;;;28.76;37.82
79242;BME280;68670;48.720;9.118;2023-06-19T11:00:54;96649.03;;;28.71;39.17
79242;BME280;68670;48.720;9.118;2023-06-19T11:03:20;96648.81;;;28.29;39.85
79242;BME280;68670;48.720;9.118;2023-06-19T11:05:48;96661.94;;;28.09;40.17
79242;BME280;68670;48.720;9.118;2023-06-19T11:08:21;96662.00;;;27.54;41.70
79242;BME280;68670;48.720;9.118;2023-06-19T11:10:47;96651.84;;;27.09;42.36
79242;BME280;68670;48.720;9.118;2023-06-19T11:13:17;96647.19;;;27.01;43.63
79242;BME280;68670;48.720;9.118;2023-06-19T11:15:43;96648.47;;;27.03;44.40
79242;BME280;68670;48.720;9.118;2023-06-19T11:18:09;96642.03;;;27.03;43.09
79242;BME280;68670;48.720;9.118;2023-06-19T11:20:44;96643.69;;;27.32;43.28
79242;BME280;68670;48.720;9.118;2023-06-19T11:23:12;96644.53;;;28.20;42.20
79242;BME280;68670;48.720;9.118;2023-06-19T11:25:39;96635.09;;;29.33;38.57
79242;BME280;68670;48.720;9.118;2023-06-19T11:28:10;96634.69;;;30.12;36.45
79242;BME280;68670;48.720;9.118;2023-06-19T11:30:36;96643.38;;;30.71;35.95
79242;BME280;68670;48.720;9.118;2023-06-19T11:33:01;96635.94;;;30.86;36.48
79242;BME280;68670;48.720;9.118;2023-06-19T11:35:32;96635.97;;;30.63;36.11
79242;BME280;68670;48.720;9.118;2023-06-19T11:37:59;96620.06;;;31.08;34.91
79242;BME280;68670;48.720;9.118;2023-06-19T11:40:24;96618.66;;;30.95;34.70
79242;BME280;68670;48.720;9.118;2023-06-19T11:42:53;96621.81;;;30.86;35.41
79242;BME280;68670;48.720;9.118;2023-06-19T11:45:19;96627.47;;;30.90;36.59
79242;BME280;68670;48.720;9.118;2023-06-19T11:47:45;96624.25;;;31.14;34.47
79242;BME280;68670;48.720;9.118;2023-06-19T11:50:13;96620.09;;;31.38;33.08
79242;BME280;68670;48.720;9.118;2023-06-19T11:52:42;96613.41;;;30.67;35.15
79242;BME280;68670;48.720;9.118;2023-06-19T11:55:08;96625.78;;;30.10;35.62
79242;BME280;68670;48.720;9.118;2023-06-19T11:57:34;96623.00;;;30.13;36.56
79242;BME280;68670;48.720;9.118;2023-06-19T11:59:59;96625.19;;;30.00;36.22
79242;BME280;68670;48.720;9.118;2023-06-19T12:02:24;96617.44;;;29.74;37.08
79242;BME280;68670;48.720;9.118;2023-06-19T12:04:50;96621.69;;;30.07;36.30
79242;BME280;68670;48.720;9.118;2023-06-19T12:07:17;96622.19;;;30.13;35.92
79242;BME280;68670;48.720;9.118;2023-06-19T12:09:43;96612.91;;;30.88;34.62
79242;BME280;68670;48.720;9.118;2023-06-19T12:12:09;96618.19;;;31.79;33.22
79242;BME280;68670;48.720;9.118;2023-06-19T12:14:37;96604.63;;;31.99;31.83
79242;BME280;68670;48.720;9.118;2023-06-19T12:17:04;96589.34;;;32.11;31.09
79242;BME280;68670;48.720;9.118;2023-06-19T12:19:30;96592.88;;;32.00;32.75
79242;BME280;68670;48.720;9.118;2023-06-19T12:21:55;96596.16;;;32.02;33.23
79242;BME280;68670;48.720;9.118;2023-06-19T12:24:23;96599.22;;;32.27;31.74
79242;BME280;68670;48.720;9.118;2023-06-19T12:26:51;96591.09;;;32.73;31.29
79242;BME280;68670;48.720;9.118;2023-06-19T12:29:16;96586.19;;;33.32;29.71
79242;BME280;68670;48.720;9.118;2023-06-19T12:31:43;96582.22;;;33.55;29.50
79242;BME280;68670;48.720;9.118;2023-06-19T12:34:08;96585.91;;;33.66;30.03
79242;BME280;68670;48.720;9.118;2023-06-19T12:36:38;96589.50;;;33.56;28.36
79242;BME280;68670;48.720;9.118;2023-06-19T12:39:04;96586.72;;;33.70;29.03
79242;BME280;68670;48.720;9.118;2023-06-19T12:41:37;96582.44;;;33.18;30.23
79242;BME280;68670;48.720;9.118;2023-06-19T12:44:03;96584.47;;;33.14;29.62
79242;BME280;68670;48.720;9.118;2023-06-19T12:46:28;96581.03;;;33.66;30.00
79242;BME280;68670;48.720;9.118;2023-06-19T12:48:54;96573.44;;;34.24;28.66
79242;BME280;68670;48.720;9.118;2023-06-19T12:51:19;96579.06;;;33.81;29.70
79242;BME280;68670;48.720;9.118;2023-06-19T12:53:44;96577.78;;;32.78;29.50
79242;BME280;68670;48.720;9.118;2023-06-19T12:56:10;96582.25;;;32.31;32.63
79242;BME280;68670;48.720;9.118;2023-06-19T12:58:40;96583.78;;;32.21;30.99
79242;BME280;68670;48.720;9.118;2023-06-19T13:01:05;96584.66;;;32.29;31.17
79242;BME280;68670;48.720;9.118;2023-06-19T13:03:33;96579.22;;;31.35;32.32
79242;BME280;68670;48.720;9.118;2023-06-19T13:06:03;96581.00;;;30.61;33.13
79242;BME280;68670;48.720;9.118;2023-06-19T13:08:28;96587.25;;;30.47;34.60